sensor_id;sensor_type;location;lat;lon;timestamp;pressure;altitude;pressure_sealevel;temperature;humidity
62122;BME280;48108;47.532;19.084;2023-02-16T04:52:44;101705.28;;;-2.02;100.00
62122;BME280;48108;47.532;19.084;2023-02-16T04:55:48;101708.31;;;-2.11;100.00
62122;BME280;48108;47.532;19.084;2023-02-16T04:58:51;101709.25;;;-2.12;100.00
62122;BME280;48108;47.532;19.084;2023-02-16T05:01:54;101709.13;;;-2.09;100.00
62122;BME280;48108;47.532;19.084;2023-02-16T05:04:59;101701.37;;;-2.14;100.00
62122;BME280;48108;47.532;19.084;2023-02-16T05:08:02;101698.16;;;-2.20;100.00
62122;BME280;48108;47.532;19.084;2023-02-16T05:11:05;101698.41;;;-2.26;100.00
62122;BME280;48108;47.532;19.084;2023-02-16T05:14:31;101697.72;;;-2.32;100.00
62122;BME280;48108;47.532;19.084;2023-02-16T05:17:43;101702.28;;;-2.35;100.00
62122;BME280;48108;47.532;19.084;2023-02-16T05:20:45;101705.97;;;-2.39;100.00
62122;BME280;48108;47.532;19.084;2023-02-16T05:24:09;101708.88;;;-2.45;100.00
62122;BME280;48108;47.532;19.084;2023-02-16T05:27:24;101701.37;;;-2.56;100.00
62122;BME280;48108;47.532;19.084;2023-02-16T05:30:27;101699.16;;;-2.67;100.00
62122;BME280;48108;47.532;19.084;2023-02-16T05:33:30;101701.75;;;-2.65;100.00
62122;BME280;48108;47.532;19.084;2023-02-16T05:36:32;101701.75;;;-2.65;100.00
62122;BME280;48108;47.532;19.084;2023-02-16T05:39:35;101700.19;;;-2.71;100.00
62122;BME280;48108;47.532;19.084;2023-02-16T05:42:38;101708.34;;;-2.77;100.00
62122;BME280;48108;47.532;19.084;2023-02-16T05:45:41;101706.56;;;-2.77;100.00
62122;BME280;48108;47.532;19.084;2023-02-16T05:48:44;101710.28;;;-2.82;100.00
62122;BME280;48108;47.532;19.084;2023-02-16T05:51:47;101707.72;;;-2.84;100.00
62122;BME280;48108;47.532;19.084;2023-02-16T05:54:50;101709.69;;;-2.89;100.00
62122;BME280;48108;47.532;19.084;2023-02-16T05:57:53;101709.16;;;-2.99;100.00
62122;BME280;48108;47.532;19.084;2023-02-16T06:00:55;101704.13;;;-3.05;100.00
62122;BME280;48108;47.532;19.084;2023-02-16T06:03:59;101700.00;;;-3.12;100.00
62122;BME280;48108;47.532;19.084;2023-02-16T06:07:02;101700.75;;;-3.08;100.00
62122;BME280;48108;47.532;19.084;2023-02-16T06:10:05;101699.53;;;-3.00;100.00
62122;BME280;48108;47.532;19.084;2023-02-16T06:13:09;101696.91;;;-3.00;100.00
62122;BME280;48108;47.532;19.084;2023-02-16T06:16:12;101694.53;;;-2.84;100.00
62122;BME280;48108;47.532;19.084;2023-02-16T06:19:16;101699.19;;;-2.90;100.00
62122;BME280;48108;47.532;19.084;2023-02-16T06:22:19;101693.19;;;-2.94;100.00
62122;BME280;48108;47.532;19.084;2023-02-16T06:25:22;101696.88;;;-2.76;100.00
62122;BME280;48108;47.532;19.084;2023-02-16T06:28:25;101693.69;;;-2.84;100.00
62122;BME280;48108;47.532;19.084;2023-02-16T06:31:28;101696.44;;;-2.87;100.00
62122;BME280;48108;47.532;19.084;2023-02-16T06:34:31;101699.13;;;-2.89;100.00
62122;BME280;48108;47.532;19.084;2023-02-16T06:37:34;101708.13;;;-2.94;100.00
62122;BME280;48108;47.532;19.084;2023-02-16T06:40:37;101700.22;;;-2.94;100.00
62122;BME280;48108;47.532;19.084;2023-02-16T06:43:40;101698.63;;;-2.99;100.00
62122;BME280;48108;47.532;19.084;2023-02-16T06:46:45;101698.41;;;-2.92;100.00
62122;BME280;48108;47.532;19.084;2023-02-16T06:49:48;101699.13;;;-2.89;100.00
62122;BME280;48108;47.532;19.084;2023-02-16T06:52:51;101699.06;;;-2.87;100.00
62122;BME280;48108;47.532;19.084;2023-02-16T06:55:54;101698.59;;;-2.75;100.00
62122;BME280;48108;47.532;19.084;2023-02-16T06:58:57;101696.75;;;-2.73;100.00
62122;BME280;48108;47.532;19.084;2023-02-16T07:02:00;101690.34;;;-2.66;100.00
62122;BME280;48108;47.532;19.084;2023-02-16T07:05:03;101694.94;;;-2.71;100.00
62122;BME280;48108;47.532;19.084;2023-02-16T07:08:07;101697.25;;;-2.63;100.00
62122;BME280;48108;47.532;19.084;2023-02-16T07:11:15;101697.16;;;-2.60;100.00
62122;BME280;48108;47.532;19.084;2023-02-16T07:14:19;101692.72;;;-2.60;100.00
62122;BME280;48108;47.532;19.084;2023-02-16T07:17:22;101693.38;;;-2.55;100.00
62122;BME280;48108;47.532;19.084;2023-02-16T07:20:25;101683.12;;;-2.40;100.00
62122;BME280;48108;47.532;19.084;2023-02-16T07:23:29;101692.09;;;-2.44;100.00
62122;BME280;48108;47.532;19.084;2023-02-16T07:26:32;101692.56;;;-2.13;100.00
62122;BME280;48108;47.532;19.084;2023-02-16T07:29:36;101696.62;;;-1.84;100.00
62122;BME280;48108;47.532;19.084;2023-02-16T07:32:39;101688.19;;;-1.52;100.00
62122;BME280;48108;47.532;19.084;2023-02-16T07:35:42;101684.91;;;-1.18;100.00
62122;BME280;48108;47.532;19.084;2023-02-16T07:38:44;101689.62;;;-0.87;100.00
62122;BME280;48108;47.532;19.084;2023-02-16T07:41:47;101683.69;;;-0.73;100.00
62122;BME280;48108;47.532;19.084;2023-02-16T07:44:54;101676.44;;;-0.51;100.00
62122;BME280;48108;47.532;19.084;2023-02-16T07:47:59;101675.50;;;-0.32;100.00
62122;BME280;48108;47.532;19.084;2023-02-16T07:51:02;101677.87;;;-0.26;100.00
62122;BME280;48108;47.532;19.084;2023-02-16T07:54:07;101680.28;;;-0.21;100.00
62122;BME280;48108;47.532;19.084;2023-02-16T07:57:09;101685.44;;;-0.01;100.00
62122;BME280;48108;47.532;19.084;2023-02-16T08:00:15;101675.38;;;0.23;100.00
62122;BME280;48108;47.532;19.084;2023-02-16T08:03:18;101679.56;;;0.44;100.00
62122;BME280;48108;47.532;19.084;2023-02-16T08:06:21;101682.13;;;0.46;100.00
62122;BME280;48108;47.532;19.084;2023-02-16T08:09:25;101671.09;;;0.71;100.00
62122;BME280;48108;47.532;19.084;2023-02-16T08:12:27;101676.50;;;0.85;100.00
62122;BME280;48108;47.532;19.084;2023-02-16T08:15:30;101684.47;;;1.01;100.00
62122;BME280;48108;47.532;19.084;2023-02-16T08:18:33;101689.03;;;1.15;100.00
62122;BME280;48108;47.532;19.084;2023-02-16T08:21:37;101683.28;;;1.39;100.00
62122;BME280;48108;47.532;19.084;2023-02-16T08:24:41;101686.50;;;1.59;100.00
62122;BME280;48108;47.532;19.084;2023-02-16T08:27:44;101691.28;;;1.85;100.00
62122;BME280;48108;47.532;19.084;2023-02-16T08:30:46;101689.09;;;1.61;100.00
62122;BME280;48108;47.532;19.084;2023-02-16T08:33:51;101688.41;;;2.18;100.00
62122;BME280;48108;47.532;19.084;2023-02-16T08:36:55;101688.19;;;2.51;100.00
62122;BME280;48108;47.532;19.084;2023-02-16T08:39:59;101688.88;;;2.55;100.00
62122;BME280;48108;47.532;19.084;2023-02-16T08:43:02;101682.97;;;2.49;100.00
62122;BME280;48108;47.532;19.084;2023-02-16T08:46:05;101679.34;;;2.50;100.00
62122;BME280;48108;47.532;19.084;2023-02-16T08:49:10;101680.59;;;2.45;100.00
62122;BME280;48108;47.532;19.084;2023-02-16T08:52:13;101683.06;;;2.48;100.00
62122;BME280;48108;47.532;19.084;2023-02-16T08:55:16;101686.69;;;2.76;100.00
62122;BME280;48108;47.532;19.084;2023-02-16T08:58:20;101685.47;;;2.67;100.00
62122;BME280;48108;47.532;19.084;2023-02-16T09:01:22;101681.81;;;2.54;100.00
62122;BME280;48108;47.532;19.084;2023-02-16T09:04:27;101682.03;;;2.65;100.00
62122;BME280;48108;47.532;19.084;2023-02-16T09:07:30;101681.53;;;3.01;100.00
62122;BME280;48108;47.532;19.084;2023-02-16T09:10:36;101682.88;;;2.94;100.00
62122;BME280;48108;47.532;19.084;2023-02-16T09:13:39;101679.56;;;3.05;100.00
62122;BME280;48108;47.532;19.084;2023-02-16T09:16:43;101681.00;;;3.37;100.00
62122;BME280;48108;47.532;19.084;2023-02-16T09:19:49;101680.97;;;3.52;100.00
62122;BME280;48108;47.532;19.084;2023-02-16T09:22:53;101675.28;;;3.44;100.00
62122;BME280;48108;47.532;19.084;2023-02-16T09:25:58;101673.38;;;3.46;100.00
62122;BME280;48108;47.532;19.084;2023-02-16T09:29:01;101672.81;;;3.68;100.00
62122;BME280;48108;47.532;19.084;2023-02-16T09:32:05;101668.88;;;3.73;100.00
62122;BME280;48108;47.532;19.084;2023-02-16T09:35:08;101669.38;;;3.93;100.00
62122;BME280;48108;47.532;19.084;2023-02-16T09:38:10;101672.06;;;4.18;100.00
62122;BME280;48108;47.532;19.084;2023-02-16T09:47:52;101668.44;;;4.70;100.00
62122;BME280;48108;47.532;19.084;2023-02-16T09:51:01;101669.53;;;4.81;100.00
62122;BME280;48108;47.532;19.084;2023-02-16T10:01:12;101660.09;;;5.00;100.00
62122;BME280;48108;47.532;19.084;2023-02-16T10:04:37;101652.72;;;5.04;100.00
62122;BME280;48108;47.532;19.084;2023-02-16T10:08:02;101658.69;;;5.44;100.00
62122;BME280;48108;47.532;19.084;2023-02-16T10:11:19;101659.34;;;5.83;99.24
62122;BME280;48108;47.532;19.084;2023-02-16T10:14:43;101658.00;;;6.13;96.83
62122;BME280;48108;47.532;19.084;2023-02-16T10:17:50;101651.38;;;6.30;95.62
62122;BME280;48108;47.532;19.084;2023-02-16T10:20:58;101653.47;;;6.60;96.15
62122;BME280;48108;47.532;19.084;2023-02-16T10:24:04;101639.25;;;6.71;93.18
62122;BME280;48108;47.532;19.084;2023-02-16T10:27:13;101638.38;;;6.59;93.85
62122;BME280;48108;47.532;19.084;2023-02-16T10:30:21;101629.38;;;7.05;93.96
62122;BME280;48108;47.532;19.084;2023-02-16T10:33:41;101627.97;;;7.22;92.39
62122;BME280;48108;47.532;19.084;2023-02-16T10:46:22;101624.59;;;7.84;88.31
62122;BME280;48108;47.532;19.084;2023-02-16T10:49:29;101612.16;;;8.04;88.79
62122;BME280;48108;47.532;19.084;2023-02-16T10:52:38;101609.34;;;8.27;86.92
62122;BME280;48108;47.532;19.084;2023-02-16T10:55:42;101605.28;;;8.32;85.34
62122;BME280;48108;47.532;19.084;2023-02-16T10:58:45;101594.12;;;8.48;84.78
62122;BME280;48108;47.532;19.084;2023-02-16T11:01:51;101597.78;;;8.57;83.65
62122;BME280;48108;47.532;19.084;2023-02-16T11:04:57;101594.47;;;8.74;83.42
62122;BME280;48108;47.532;19.084;2023-02-16T11:08:01;101596.66;;;8.80;82.35
62122;BME280;48108;47.532;19.084;2023-02-16T11:11:08;101588.72;;;8.89;81.93
62122;BME280;48108;47.532;19.084;2023-02-16T11:14:24;101584.69;;;9.04;81.56
62122;BME280;48108;47.532;19.084;2023-02-16T11:17:31;101589.78;;;9.17;80.28
62122;BME280;48108;47.532;19.084;2023-02-16T11:20:53;101585.94;;;9.09;79.89
62122;BME280;48108;47.532;19.084;2023-02-16T11:23:58;101589.19;;;8.94;81.61
62122;BME280;48108;47.532;19.084;2023-02-16T11:27:17;101576.19;;;9.18;81.54
62122;BME280;48108;47.532;19.084;2023-02-16T11:30:29;101561.66;;;9.69;79.20
62122;BME280;48108;47.532;19.084;2023-02-16T11:33:34;101562.16;;;10.02;75.86
62122;BME280;48108;47.532;19.084;2023-02-16T11:36:44;101557.38;;;9.96;75.77
62122;BME280;48108;47.532;19.084;2023-02-16T11:39:53;101563.41;;;10.17;73.40
62122;BME280;48108;47.532;19.084;2023-02-16T11:42:59;101551.53;;;10.10;74.29
62122;BME280;48108;47.532;19.084;2023-02-16T11:46:13;101555.72;;;10.32;74.23
62122;BME280;48108;47.532;19.084;2023-02-16T11:49:40;101556.03;;;10.19;73.45
62122;BME280;48108;47.532;19.084;2023-02-16T11:52:46;101545.09;;;10.68;72.72
62122;BME280;48108;47.532;19.084;2023-02-16T11:59:19;101531.00;;;11.55;70.14
62122;BME280;48108;47.532;19.084;2023-02-16T12:06:00;101519.16;;;12.18;65.29
62122;BME280;48108;47.532;19.084;2023-02-16T12:09:31;101514.06;;;12.50;63.13
62122;BME280;48108;47.532;19.084;2023-02-16T12:16:29;101496.19;;;13.81;59.38
62122;BME280;48108;47.532;19.084;2023-02-16T12:19:41;101495.16;;;14.85;55.52
62122;BME280;48108;47.532;19.084;2023-02-16T12:22:47;101485.22;;;16.44;48.98
62122;BME280;48108;47.532;19.084;2023-02-16T12:39:25;101462.97;;;19.41;36.85
62122;BME280;48108;47.532;19.084;2023-02-16T12:45:50;101450.69;;;20.30;35.79
62122;BME280;48108;47.532;19.084;2023-02-16T12:49:16;101441.16;;;19.75;36.50
62122;BME280;48108;47.532;19.084;2023-02-16T12:53:01;101446.34;;;20.03;35.79
62122;BME280;48108;47.532;19.084;2023-02-16T12:56:10;101430.81;;;18.35;38.43
62122;BME280;48108;47.532;19.084;2023-02-16T12:59:24;101430.56;;;18.24;38.63
62122;BME280;48108;47.532;19.084;2023-02-16T13:02:40;101429.97;;;19.03;38.01
62122;BME280;48108;47.532;19.084;2023-02-16T13:05:52;101423.78;;;18.61;38.11
62122;BME280;48108;47.532;19.084;2023-02-16T13:12:38;101406.00;;;15.81;43.49
62122;BME280;48108;47.532;19.084;2023-02-16T13:16:07;101411.41;;;13.89;49.33
62122;BME280;48108;47.532;19.084;2023-02-16T13:19:31;101407.78;;;13.24;52.25
62122;BME280;48108;47.532;19.084;2023-02-16T13:22:43;101407.34;;;12.37;55.58
62122;BME280;48108;47.532;19.084;2023-02-16T13:29:57;101392.22;;;10.80;62.14
62122;BME280;48108;47.532;19.084;2023-02-16T13:46:02;101375.97;;;10.54;65.54
62122;BME280;48108;47.532;19.084;2023-02-16T13:49:37;101376.78;;;10.36;65.11
62122;BME280;48108;47.532;19.084;2023-02-16T13:52:44;101378.72;;;10.44;64.61
62122;BME280;48108;47.532;19.084;2023-02-16T13:55:47;101382.41;;;10.15;66.12
62122;BME280;48108;47.532;19.084;2023-02-16T13:58:52;101380.34;;;10.09;67.36
62122;BME280;48108;47.532;19.084;2023-02-16T14:01:56;101372.03;;;10.20;66.81
62122;BME280;48108;47.532;19.084;2023-02-16T14:05:02;101365.87;;;10.10;67.59
62122;BME280;48108;47.532;19.084;2023-02-16T14:08:18;101372.34;;;10.17;67.44
62122;BME280;48108;47.532;19.084;2023-02-16T14:11:22;101358.63;;;10.11;66.89
62122;BME280;48108;47.532;19.084;2023-02-16T14:17:43;101362.59;;;9.89;68.21
62122;BME280;48108;47.532;19.084;2023-02-16T14:20:59;101369.13;;;9.86;69.69
62122;BME280;48108;47.532;19.084;2023-02-16T14:24:04;101352.66;;;9.62;70.36
62122;BME280;48108;47.532;19.084;2023-02-16T14:27:11;101364.53;;;9.59;70.95
62122;BME280;48108;47.532;19.084;2023-02-16T14:30:23;101349.28;;;9.60;70.47
62122;BME280;48108;47.532;19.084;2023-02-16T14:33:58;101352.69;;;9.52;71.58
62122;BME280;48108;47.532;19.084;2023-02-16T14:40:17;101355.50;;;9.50;72.78
62122;BME280;48108;47.532;19.084;2023-02-16T14:54:49;101347.38;;;9.32;72.86
62122;BME280;48108;47.532;19.084;2023-02-16T14:57:55;101347.41;;;9.23;73.82
62122;BME280;48108;47.532;19.084;2023-02-16T15:01:18;101349.66;;;9.27;73.68
62122;BME280;48108;47.532;19.084;2023-02-16T15:04:31;101345.69;;;9.31;73.35
62122;BME280;48108;47.532;19.084;2023-02-16T15:07:34;101351.19;;;9.30;73.84
62122;BME280;48108;47.532;19.084;2023-02-16T15:10:42;101342.72;;;9.35;73.48
62122;BME280;48108;47.532;19.084;2023-02-16T15:13:48;101341.56;;;9.37;72.87
62122;BME280;48108;47.532;19.084;2023-02-16T15:16:56;101347.66;;;9.39;73.03
62122;BME280;48108;47.532;19.084;2023-02-16T15:23:18;101342.16;;;9.21;73.39
62122;BME280;48108;47.532;19.084;2023-02-16T15:26:32;101340.22;;;9.14;74.03
62122;BME280;48108;47.532;19.084;2023-02-16T15:29:35;101335.84;;;9.03;74.33
62122;BME280;48108;47.532;19.084;2023-02-16T15:32:38;101337.72;;;8.93;74.71
62122;BME280;48108;47.532;19.084;2023-02-16T15:35:42;101341.56;;;8.80;75.43
62122;BME280;48108;47.532;19.084;2023-02-16T15:38:58;101339.59;;;8.63;76.15
62122;BME280;48108;47.532;19.084;2023-02-16T15:42:19;101339.28;;;8.56;77.31
62122;BME280;48108;47.532;19.084;2023-02-16T15:45:27;101338.56;;;8.45;78.58
62122;BME280;48108;47.532;19.084;2023-02-16T15:51:36;101348.09;;;7.99;80.91
62122;BME280;48108;47.532;19.084;2023-02-16T15:54:39;101346.06;;;7.91;81.42
62122;BME280;48108;47.532;19.084;2023-02-16T15:57:43;101346.19;;;7.80;82.64
62122;BME280;48108;47.532;19.084;2023-02-16T16:00:46;101347.72;;;7.72;83.12
62122;BME280;48108;47.532;19.084;2023-02-16T16:03:49;101351.63;;;7.68;84.02
62122;BME280;48108;47.532;19.084;2023-02-16T16:06:53;101350.19;;;7.55;85.59
62122;BME280;48108;47.532;19.084;2023-02-16T16:09:58;101351.91;;;7.35;87.54
62122;BME280;48108;47.532;19.084;2023-02-16T16:13:04;101343.31;;;7.10;88.24
62122;BME280;48108;47.532;19.084;2023-02-16T16:16:12;101341.69;;;6.98;90.27
62122;BME280;48108;47.532;19.084;2023-02-16T16:19:39;101346.78;;;6.80;91.55
62122;BME280;48108;47.532;19.084;2023-02-16T16:22:41;101349.28;;;6.61;93.34
62122;BME280;48108;47.532;19.084;2023-02-16T16:25:47;101352.91;;;6.39;94.45
62122;BME280;48108;47.532;19.084;2023-02-16T16:28:51;101350.84;;;6.31;95.60
62122;BME280;48108;47.532;19.084;2023-02-16T16:31:53;101348.69;;;6.25;97.06
62122;BME280;48108;47.532;19.084;2023-02-16T16:34:58;101354.56;;;6.07;97.40
62122;BME280;48108;47.532;19.084;2023-02-16T16:38:01;101353.22;;;5.90;98.13
62122;BME280;48108;47.532;19.084;2023-02-16T16:41:04;101358.97;;;5.97;99.68
62122;BME280;48108;47.532;19.084;2023-02-16T16:47:39;101360.91;;;5.95;100.00
62122;BME280;48108;47.532;19.084;2023-02-16T16:50:42;101365.63;;;5.80;100.00
